Thunder radar more information blitzortung!


avis per Pluja more information rain snow radar


Visita la nostra xarxa de llocs de meteo:

Template documentation
and downloads

And another site



Rain From: 15-11-2018 00:00 Until: 23:59 warning for: Rain Level: Yellow info button

Pagina Historial Weather Underground text

Diari Resum Juny 23, 2017 Unitats:  Imperial    Mètric   Tant
« Previous Dia
SegĂźent Dia »
Diari Setmana Mensual Anual Personalitzada
  Maxima: Minima: Media:
Temperatura: TemperatureC °F 21.2 °F 28.5 °F
Punt de rosada: DewpointC °F 12.9 °F 15.3 °F
Humitat: Humidity % 31 % 46 %
Wind Speed: WindSpeedKMH mph 0.0 mph 8.9 mph
RĂ fegues de vent: WindSpeedGustKMH mph - -
Vent:- - SW
Pression baro: PressurehPa in 1014.8 in -
Precipitacions: 0.0 in    
Historical Graphs
 
 
Dades de taula per Juny 23, 2017
Temps Temperatura Punt de rosada Pression baro Vent Wind Speed RĂ fegues de vent Humitat Rainfall Rate (Hourly)
TemperatureC °F DewpointC °F PressurehPa in Calm     Humidity % HourlyPrecipMM in
00:01 24.2 °F 13.1 °F 1017.8 in SW 6.4 mph 6.4 mph 50 % 0.0 in
00:05 22.4 °F 14.8 °F 1017.8 in West 3.2 mph 6.4 mph 62 % 0.0 in
00:06 24.1 °F 13.3 °F 1017.8 in SSW 5.6 mph 5.6 mph 51 % 0.0 in
00:15 22.3 °F 14.7 °F 1017.8 in WSW 3.2 mph 4.8 mph 62 % 0.0 in
00:25 22.2 °F 14.6 °F 1017.8 in West 3.2 mph 4.8 mph 62 % 0.0 in
00:35 22.1 °F 14.5 °F 1017.8 in West 1.6 mph 3.2 mph 62 % 0.0 in
00:45 22.0 °F 14.6 °F 1017.8 in Calm   1.6 mph 63 % 0.0 in
00:55 21.7 °F 14.3 °F 1017.8 in Calm     63 % 0.0 in
01:05 21.8 °F 14.4 °F 1017.8 in WNW 1.6 mph 3.2 mph 63 % 0.0 in
01:15 21.7 °F 14.1 °F 1017.8 in WNW 1.6 mph 3.2 mph 62 % 0.0 in
01:25 21.8 °F 14.2 °F 1017.8 in West 3.2 mph 3.2 mph 62 % 0.0 in
01:35 22.0 °F 14.4 °F 1017.8 in West 1.6 mph 4.8 mph 62 % 0.0 in
01:45 22.0 °F 14.6 °F 1017.8 in West 1.6 mph 3.2 mph 63 % 0.0 in
01:55 21.9 °F 14.8 °F 1016.8 in WNW 1.6 mph 3.2 mph 64 % 0.0 in
02:05 22.0 °F 13.9 °F 1017.8 in NNW 1.6 mph 4.8 mph 60 % 0.0 in
02:15 22.2 °F 13.8 °F 1017.8 in Calm   1.6 mph 59 % 0.0 in
02:25 22.5 °F 14.1 °F 1017.8 in Calm   3.2 mph 59 % 0.0 in
02:35 23.3 °F 14.6 °F 1016.8 in NNW 1.6 mph 3.2 mph 58 % 0.0 in
02:45 23.7 °F 14.9 °F 1016.8 in Calm   3.2 mph 58 % 0.0 in
02:55 23.6 °F 14.8 °F 1017.8 in WNW 1.6 mph 3.2 mph 58 % 0.0 in
03:05 23.8 °F 15.1 °F 1017.8 in West 1.6 mph 4.8 mph 58 % 0.0 in
03:15 24.0 °F 15.5 °F 1017.8 in WSW 3.2 mph 3.2 mph 59 % 0.0 in
03:25 24.1 °F 15.6 °F 1017.8 in West 3.2 mph 6.4 mph 59 % 0.0 in
03:35 24.5 °F 16.2 °F 1017.8 in WSW 1.6 mph 4.8 mph 60 % 0.0 in
03:45 24.7 °F 16.4 °F 1017.8 in SW 3.2 mph 4.8 mph 60 % 0.0 in
03:55 25.0 °F 16.4 °F 1018.8 in WSW 3.2 mph 4.8 mph 59 % 0.0 in
04:05 25.4 °F 16.6 °F 1017.8 in WSW 4.8 mph 4.8 mph 58 % 0.0 in
04:15 25.6 °F 16.4 °F 1017.8 in WSW 4.8 mph 6.4 mph 57 % 0.0 in
04:25 26.0 °F 16.3 °F 1018.8 in WSW 4.8 mph 9.7 mph 55 % 0.0 in
04:35 26.6 °F 16.8 °F 1018.8 in WSW 3.2 mph 6.4 mph 55 % 0.0 in
04:45 27.0 °F 16.6 °F 1018.8 in WSW 4.8 mph 4.8 mph 53 % 0.0 in
04:55 27.4 °F 16.7 °F 1018.8 in WSW 3.2 mph 6.4 mph 52 % 0.0 in
05:05 27.9 °F 16.8 °F 1018.8 in WSW 3.2 mph 6.4 mph 51 % 0.0 in
05:15 28.1 °F 16.7 °F 1018.8 in WSW 3.2 mph 6.4 mph 50 % 0.0 in
05:25 28.7 °F 16.9 °F 1018.8 in WSW 3.2 mph 6.4 mph 49 % 0.0 in
10:36 29.8 °F 16.6 °F 1018.8 in SW 7.9 mph 7.9 mph 45 % 0.0 in
10:41 30.1 °F 16.5 °F 1018.8 in SSW 5.6 mph 5.6 mph 44 % 0.0 in
10:46 30.3 °F 16.3 °F 1018.8 in South 9.3 mph 9.3 mph 43 % 0.0 in
10:51 30.4 °F 16.1 °F 1018.8 in West 7.4 mph 7.4 mph 42 % 0.0 in
10:56 30.8 °F 16.4 °F 1018.8 in SW 7.4 mph 7.4 mph 42 % 0.0 in
11:01 31.0 °F 16.2 °F 1018.8 in SW 7.4 mph 7.4 mph 41 % 0.0 in
11:06 31.5 °F 16.7 °F 1018.8 in South 7.4 mph 7.4 mph 41 % 0.0 in
11:11 31.5 °F 16.3 °F 1018.8 in SE 9.3 mph 9.3 mph 40 % 0.0 in
11:16 31.6 °F 16.7 °F 1017.8 in WSW 9.3 mph 9.3 mph 41 % 0.0 in
11:21 31.7 °F 16.4 °F 1017.8 in SSW 11.1 mph 11.1 mph 40 % 0.0 in
11:26 32.2 °F 16.9 °F 1017.8 in WSW 5.8 mph 5.8 mph 40 % 0.0 in
11:31 32.0 °F 16.3 °F 1018.8 in SW 13.0 mph 13.0 mph 39 % 0.0 in
11:36 32.2 °F 16.1 °F 1018.8 in WSW 5.6 mph 5.6 mph 38 % 0.0 in
11:41 32.3 °F 15.8 °F 1018.8 in SW 10.0 mph 10.0 mph 37 % 0.0 in
11:46 32.1 °F 15.2 °F 1017.8 in West 13.0 mph 13.0 mph 36 % 0.0 in
11:51 32.1 °F 15.6 °F 1017.8 in SW 12.2 mph 12.2 mph 37 % 0.0 in
11:56 32.3 °F 15.8 °F 1017.8 in South 13.0 mph 13.0 mph 37 % 0.0 in
12:01 33.0 °F 15.9 °F 1017.8 in WSW 7.4 mph 7.4 mph 36 % 0.0 in
12:06 33.3 °F 16.2 °F 1017.8 in East 9.3 mph 9.3 mph 36 % 0.0 in
12:11 33.4 °F 16.3 °F 1017.8 in SW 9.3 mph 9.3 mph 36 % 0.0 in
12:16 33.7 °F 16.6 °F 1016.8 in WSW 7.4 mph 7.4 mph 36 % 0.0 in
12:21 33.4 °F 15.8 °F 1016.8 in SW 9.3 mph 9.3 mph 35 % 0.0 in
12:26 33.3 °F 15.3 °F 1016.8 in SW 11.1 mph 11.1 mph 34 % 0.0 in
12:31 33.5 °F 15.9 °F 1017.8 in WSW 11.1 mph 11.1 mph 35 % 0.0 in
12:36 34.3 °F 16.7 °F 1017.8 in SW 5.6 mph 5.6 mph 35 % 0.0 in
12:41 34.3 °F 16.2 °F 1017.8 in SW 11.1 mph 11.1 mph 34 % 0.0 in
12:46 33.9 °F 15.8 °F 1017.8 in SSW 16.7 mph 16.7 mph 34 % 0.0 in
12:51 33.7 °F 15.7 °F 1017.8 in WSW 18.5 mph 18.5 mph 34 % 0.0 in
12:56 33.9 °F 15.8 °F 1017.8 in South 14.8 mph 14.8 mph 34 % 0.0 in
13:01 34.3 °F 16.2 °F 1017.8 in WSW 9.3 mph 9.3 mph 34 % 0.0 in
13:06 34.0 °F 15.9 °F 1017.8 in SSE 20.4 mph 20.4 mph 34 % 0.0 in
13:11 34.5 °F 16.3 °F 1017.8 in SW 9.3 mph 9.3 mph 34 % 0.0 in
13:16 34.5 °F 15.9 °F 1017.8 in WSW 9.3 mph 9.3 mph 33 % 0.0 in
13:21 34.3 °F 15.2 °F 1017.8 in SSW 14.8 mph 14.8 mph 32 % 0.0 in
13:26 34.3 °F 14.7 °F 1017.8 in SW 9.3 mph 9.3 mph 31 % 0.0 in
13:31 34.6 °F 15.5 °F 1017.8 in SW 11.1 mph 11.1 mph 32 % 0.0 in
13:36 34.7 °F 15.1 °F 1017.8 in SW 13.0 mph 13.0 mph 31 % 0.0 in
13:41 34.7 °F 15.1 °F 1017.8 in SW 9.3 mph 9.3 mph 31 % 0.0 in
13:46 34.7 °F 15.1 °F 1017.8 in SSW 9.3 mph 9.3 mph 31 % 0.0 in
13:51 34.7 °F 15.1 °F 1017.8 in WSW 10.0 mph 10.0 mph 31 % 0.0 in
13:56 34.4 °F 14.8 °F 1017.8 in SSW 14.8 mph 14.8 mph 31 % 0.0 in
14:01 34.5 °F 14.9 °F 1017.8 in WSW 15.6 mph 15.6 mph 31 % 0.0 in
14:06 34.8 °F 15.2 °F 1017.8 in West 11.1 mph 11.1 mph 31 % 0.0 in
14:11 34.7 °F 15.1 °F 1017.8 in SSW 12.6 mph 12.6 mph 31 % 0.0 in
14:16 34.9 °F 15.3 °F 1017.8 in SW 9.3 mph 9.3 mph 31 % 0.0 in
14:21 34.5 °F 14.9 °F 1017.8 in SSW 13.0 mph 13.0 mph 31 % 0.0 in
14:26 34.7 °F 15.6 °F 1017.8 in West 11.1 mph 11.1 mph 32 % 0.0 in
14:31 34.7 °F 15.6 °F 1016.8 in SSW 9.3 mph 9.3 mph 32 % 0.0 in
14:36 35.0 °F 15.3 °F 1016.8 in West 14.0 mph 14.0 mph 31 % 0.0 in
14:39 34.5 °F 15.4 °F 1016.8 in SW 11.1 mph 11.1 mph 32 % 0.0 in
14:44 34.8 °F 16.2 °F 1016.8 in SW 11.1 mph 11.1 mph 33 % 0.0 in
14:49 34.7 °F 16.1 °F 1016.8 in West 13.0 mph 13.0 mph 33 % 0.0 in
14:54 34.9 °F 16.2 °F 1016.8 in West 14.8 mph 14.8 mph 33 % 0.0 in
14:59 34.6 °F 16.4 °F 1015.8 in SW 18.5 mph 18.5 mph 34 % 0.0 in
15:04 34.2 °F 16.6 °F 1015.8 in WSW 20.4 mph 20.4 mph 35 % 0.0 in
15:09 34.1 °F 16.4 °F 1015.8 in SW 16.1 mph 16.1 mph 35 % 0.0 in
15:14 34.0 °F 16.8 °F 1015.8 in SW 16.7 mph 16.7 mph 36 % 0.0 in
15:19 33.8 °F 16.7 °F 1015.8 in WSW 16.7 mph 16.7 mph 36 % 0.0 in
15:24 33.5 °F 16.4 °F 1015.8 in SSW 18.5 mph 18.5 mph 36 % 0.0 in
15:29 33.9 °F 16.7 °F 1015.8 in South 12.2 mph 12.2 mph 36 % 0.0 in
15:34 33.8 °F 16.7 °F 1015.8 in SSW 13.0 mph 13.0 mph 36 % 0.0 in
15:39 33.8 °F 16.7 °F 1015.8 in West 18.5 mph 18.5 mph 36 % 0.0 in
15:44 33.5 °F 15.9 °F 1015.8 in West 16.7 mph 16.7 mph 35 % 0.0 in
15:49 33.7 °F 16.1 °F 1015.8 in West 14.8 mph 14.8 mph 35 % 0.0 in
15:54 33.5 °F 15.9 °F 1015.8 in SW 20.4 mph 20.4 mph 35 % 0.0 in
15:59 33.8 °F 16.7 °F 1014.8 in SW 12.6 mph 12.6 mph 36 % 0.0 in
16:04 33.5 °F 15.9 °F 1014.8 in SW 20.9 mph 20.9 mph 35 % 0.0 in
16:09 33.0 °F 15.9 °F 1014.8 in SSW 20.4 mph 20.4 mph 36 % 0.0 in
16:14 33.2 °F 16.1 °F 1015.8 in SW 20.4 mph 20.4 mph 36 % 0.0 in
16:19 33.3 °F 16.2 °F 1015.8 in SW 16.1 mph 16.1 mph 36 % 0.0 in
16:24 32.8 °F 16.2 °F 1015.8 in WSW 17.2 mph 17.2 mph 37 % 0.0 in
16:29 33.3 °F 16.6 °F 1015.8 in SW 17.5 mph 17.5 mph 37 % 0.0 in
16:34 33.1 °F 16.4 °F 1015.8 in South 16.7 mph 16.7 mph 37 % 0.0 in
16:39 32.8 °F 16.6 °F 1015.8 in West 13.0 mph 13.0 mph 38 % 0.0 in
16:44 32.7 °F 16.9 °F 1015.8 in WSW 18.5 mph 18.5 mph 39 % 0.0 in
16:49 32.6 °F 16.8 °F 1015.8 in WSW 13.0 mph 13.0 mph 39 % 0.0 in
16:54 32.6 °F 16.8 °F 1015.8 in SSW 20.4 mph 20.4 mph 39 % 0.0 in
16:59 32.6 °F 17.2 °F 1015.8 in SW 14.8 mph 14.8 mph 40 % 0.0 in
17:09 32.3 °F 17.0 °F 1015.8 in WSW 14.8 mph 14.8 mph 40 % 0.0 in
17:14 32.3 °F 16.6 °F 1014.8 in SW 22.2 mph 22.2 mph 39 % 0.0 in
17:19 32.4 °F 16.7 °F 1014.8 in SW 14.8 mph 14.8 mph 39 % 0.0 in
17:24 32.4 °F 16.7 °F 1014.8 in SSW 16.7 mph 16.7 mph 39 % 0.0 in
17:29 32.3 °F 16.6 °F 1015.8 in SSW 16.9 mph 16.9 mph 39 % 0.0 in
17:34 32.1 °F 16.4 °F 1015.8 in SW 16.7 mph 16.7 mph 39 % 0.0 in
17:39 32.2 °F 16.5 °F 1015.8 in West 13.0 mph 13.0 mph 39 % 0.0 in
17:44 31.9 °F 16.2 °F 1015.8 in WSW 18.5 mph 18.5 mph 39 % 0.0 in
17:49 31.7 °F 15.6 °F 1015.8 in WSW 13.0 mph 13.0 mph 38 % 0.0 in
17:54 31.3 °F 15.7 °F 1015.8 in SW 24.1 mph 24.1 mph 39 % 0.0 in
17:59 31.4 °F 15.8 °F 1015.8 in South 14.8 mph 14.8 mph 39 % 0.0 in
18:04 31.4 °F 15.8 °F 1015.8 in SW 19.8 mph 19.8 mph 39 % 0.0 in
18:09 31.3 °F 15.7 °F 1015.8 in WSW 19.8 mph 19.8 mph 39 % 0.0 in
18:14 30.9 °F 15.7 °F 1015.8 in SW 13.0 mph 13.0 mph 40 % 0.0 in
18:19 31.0 °F 15.8 °F 1015.8 in SW 16.7 mph 16.7 mph 40 % 0.0 in
18:24 30.9 °F 16.1 °F 1015.8 in SSW 9.3 mph 9.3 mph 41 % 0.0 in
18:29 31.2 °F 16.0 °F 1015.8 in SSW 15.8 mph 15.8 mph 40 % 0.0 in
18:34 31.1 °F 15.9 °F 1015.8 in SW 18.5 mph 18.5 mph 40 % 0.0 in
18:36 31.0 °F 15.8 °F 1015.8 in WSW 14.8 mph 14.8 mph 40 % 0.0 in
18:41 31.0 °F 15.8 °F 1015.8 in SSW 19.5 mph 19.5 mph 40 % 0.0 in
18:46 30.7 °F 15.6 °F 1015.8 in South 20.1 mph 20.1 mph 40 % 0.0 in
18:51 30.6 °F 15.4 °F 1015.8 in SSW 14.8 mph 14.8 mph 40 % 0.0 in
18:56 30.7 °F 15.6 °F 1015.8 in WSW 14.8 mph 14.8 mph 40 % 0.0 in
19:01 30.5 °F 15.4 °F 1015.8 in SW 16.7 mph 16.7 mph 40 % 0.0 in
19:06 30.5 °F 15.8 °F 1015.8 in WSW 10.0 mph 10.0 mph 41 % 0.0 in
19:11 30.4 °F 15.7 °F 1015.8 in SW 9.3 mph 9.3 mph 41 % 0.0 in
19:16 30.3 °F 15.6 °F 1015.8 in SW 12.6 mph 12.6 mph 41 % 0.0 in
19:21 30.1 °F 15.0 °F 1015.8 in SW 16.7 mph 16.7 mph 40 % 0.0 in
19:25 23.8 °F 14.8 °F 1017.8 in WSW 3.2 mph 3.2 mph 57 % 0.0 in
19:26 29.9 °F 15.2 °F 1015.8 in West 16.7 mph 16.7 mph 41 % 0.0 in
19:31 29.7 °F 15.1 °F 1015.8 in WSW 20.4 mph 20.4 mph 41 % 0.0 in
19:35 23.6 °F 14.8 °F 1017.8 in SW 3.2 mph 4.8 mph 58 % 0.0 in
19:36 29.6 °F 14.9 °F 1015.8 in SSW 13.0 mph 13.0 mph 41 % 0.0 in
19:41 29.4 °F 14.8 °F 1015.8 in SW 16.7 mph 16.7 mph 41 % 0.0 in
19:45 23.4 °F 14.9 °F 1017.8 in WSW 3.2 mph 3.2 mph 59 % 0.0 in
19:46 29.3 °F 14.7 °F 1015.8 in SSW 13.0 mph 13.0 mph 41 % 0.0 in
19:51 29.2 °F 14.9 °F 1015.8 in South 13.0 mph 13.0 mph 42 % 0.0 in
19:55 23.3 °F 15.1 °F 1017.8 in SW 3.2 mph 3.2 mph 60 % 0.0 in
19:56 29.0 °F 14.8 °F 1015.8 in SW 11.1 mph 11.1 mph 42 % 0.0 in
20:01 29.0 °F 15.2 °F 1014.8 in SW 9.5 mph 9.5 mph 43 % 0.0 in
20:05 23.3 °F 15.1 °F 1017.8 in WSW 3.2 mph 4.8 mph 60 % 0.0 in
20:06 28.8 °F 15.3 °F 1014.8 in SW 5.6 mph 5.6 mph 44 % 0.0 in
20:11 28.8 °F 15.0 °F 1014.8 in West 11.1 mph 11.1 mph 43 % 0.0 in
20:15 23.2 °F 15.3 °F 1017.8 in West 1.6 mph 3.2 mph 61 % 0.0 in
20:16 28.6 °F 14.8 °F 1014.8 in WSW 14.8 mph 14.8 mph 43 % 0.0 in
20:21 28.5 °F 14.7 °F 1014.8 in SSW 9.3 mph 9.3 mph 43 % 0.0 in
20:25 23.1 °F 15.2 °F 1017.8 in WSW 3.2 mph 3.2 mph 61 % 0.0 in
20:26 28.3 °F 14.2 °F 1014.8 in SSW 9.3 mph 9.3 mph 42 % 0.0 in
20:31 28.2 °F 14.1 °F 1014.8 in SW 5.6 mph 5.6 mph 42 % 0.0 in
20:35 23.0 °F 15.3 °F 1016.8 in West 1.6 mph 3.2 mph 62 % 0.0 in
20:36 28.1 °F 14.0 °F 1014.8 in South 7.4 mph 7.4 mph 42 % 0.0 in
20:41 28.0 °F 13.9 °F 1014.8 in WNW 7.4 mph 7.4 mph 42 % 0.0 in
20:45 23.0 °F 15.3 °F 1016.8 in West 1.6 mph 3.2 mph 62 % 0.0 in
20:46 27.8 °F 13.3 °F 1015.8 in South 9.3 mph 9.3 mph 41 % 0.0 in
20:51 27.7 °F 13.3 °F 1015.8 in SW 5.6 mph 5.6 mph 41 % 0.0 in
20:55 23.0 °F 15.3 °F 1017.8 in West 1.6 mph 3.2 mph 62 % 0.0 in
20:56 27.6 °F 13.2 °F 1015.8 in SW 5.6 mph 5.6 mph 41 % 0.0 in
21:01 27.5 °F 13.1 °F 1015.8 in SW 7.4 mph 7.4 mph 41 % 0.0 in
21:05 23.0 °F 15.3 °F 1017.8 in West 3.2 mph 3.2 mph 62 % 0.0 in
21:06 27.3 °F 12.9 °F 1015.8 in WSW 11.1 mph 11.1 mph 41 % 0.0 in
21:11 27.1 °F 13.1 °F 1015.8 in WSW 20.4 mph 20.4 mph 42 % 0.0 in
21:15 22.9 °F 15.2 °F 1017.8 in West 3.2 mph 3.2 mph 62 % 0.0 in
21:16 27.0 °F 13.0 °F 1015.8 in SW 9.3 mph 9.3 mph 42 % 0.0 in
21:21 26.9 °F 13.3 °F 1015.8 in SW 9.3 mph 9.3 mph 43 % 0.0 in
21:25 22.9 °F 15.5 °F 1017.8 in West 1.6 mph 6.4 mph 63 % 0.0 in
21:26 26.7 °F 13.4 °F 1015.8 in SW 9.3 mph 9.3 mph 44 % 0.0 in
21:31 26.5 °F 13.3 °F 1015.8 in SW 6.1 mph 6.1 mph 44 % 0.0 in
21:35 22.8 °F 15.4 °F 1017.8 in West 1.6 mph 4.8 mph 63 % 0.0 in
21:36 26.4 °F 13.5 °F 1015.8 in SW 9.3 mph 9.3 mph 45 % 0.0 in
21:41 26.3 °F 13.4 °F 1015.8 in WSW 7.9 mph 7.9 mph 45 % 0.0 in
21:45 22.8 °F 15.6 °F 1017.8 in West 3.2 mph 4.8 mph 64 % 0.0 in
21:46 26.1 °F 13.2 °F 1015.8 in SW 7.4 mph 7.4 mph 45 % 0.0 in
21:51 26.0 °F 13.5 °F 1015.8 in SW 7.4 mph 7.4 mph 46 % 0.0 in
21:55 22.8 °F 15.6 °F 1017.8 in WSW 3.2 mph 4.8 mph 64 % 0.0 in
21:56 25.9 °F 13.4 °F 1015.8 in East 9.3 mph 9.3 mph 46 % 0.0 in
22:01 25.8 °F 13.6 °F 1015.8 in West 5.8 mph 5.8 mph 47 % 0.0 in
22:05 22.7 °F 15.8 °F 1017.8 in WSW 1.6 mph 3.2 mph 65 % 0.0 in
22:06 25.7 °F 13.6 °F 1015.8 in WSW 3.7 mph 3.7 mph 47 % 0.0 in
22:11 25.6 °F 13.8 °F 1015.8 in SSW 3.7 mph 3.7 mph 48 % 0.0 in
22:15 22.6 °F 15.7 °F 1017.8 in Calm   3.2 mph 65 % 0.0 in
22:16 25.4 °F 13.6 °F 1015.8 in WSW 5.6 mph 5.6 mph 48 % 0.0 in
22:21 25.3 °F 13.8 °F 1015.8 in SW 7.4 mph 7.4 mph 49 % 0.0 in
22:25 22.4 °F 15.7 °F 1017.8 in Calm   1.6 mph 66 % 0.0 in
22:26 25.3 °F 13.8 °F 1015.8 in WSW 3.7 mph 3.7 mph 49 % 0.0 in
22:31 25.1 °F 13.9 °F 1016.8 in WSW 9.3 mph 9.3 mph 50 % 0.0 in
22:35 22.1 °F 15.4 °F 1017.8 in Calm     66 % 0.0 in
22:36 25.1 °F 13.9 °F 1016.8 in SW 5.6 mph 5.6 mph 50 % 0.0 in
22:41 25.0 °F 14.2 °F 1016.8 in SW 7.4 mph 7.4 mph 51 % 0.0 in
22:45 21.9 °F 15.7 °F 1017.8 in Calm     68 % 0.0 in
22:46 24.9 °F 14.4 °F 1016.8 in SW 3.7 mph 3.7 mph 52 % 0.0 in
22:51 24.9 °F 14.4 °F 1016.8 in SW 3.7 mph 3.7 mph 52 % 0.0 in
22:55 21.7 °F 15.8 °F 1017.8 in Calm     69 % 0.0 in
22:56 24.8 °F 14.3 °F 1016.8 in SW 3.9 mph 3.9 mph 52 % 0.0 in
23:01 24.7 °F 14.5 °F 1017.8 in SW 5.6 mph 5.6 mph 53 % 0.0 in
23:02 24.7 °F 14.5 °F 1017.8 in SW 5.6 mph 5.6 mph 53 % 0.0 in
23:05 21.6 °F 15.7 °F 1017.8 in Calm     69 % 0.0 in
23:07 24.6 °F 14.4 °F 1017.8 in West 3.7 mph 3.7 mph 53 % 0.0 in
23:12 24.6 °F 14.4 °F 1017.8 in WSW 3.7 mph 3.7 mph 53 % 0.0 in
23:15 21.5 °F 15.6 °F 1017.8 in Calm     69 % 0.0 in
23:17 24.5 °F 14.3 °F 1017.8 in West 5.6 mph 5.6 mph 53 % 0.0 in
23:22 24.4 °F 14.2 °F 1017.8 in WSW 5.6 mph 5.6 mph 53 % 0.0 in
23:25 21.4 °F 15.7 °F 1016.8 in SW 1.6 mph 1.6 mph 70 % 0.0 in
23:27 24.3 °F 14.1 °F 1017.8 in West 3.7 mph 3.9 mph 53 % 0.0 in
23:32 24.3 °F 14.4 °F 1017.8 in WSW 3.7 mph 3.7 mph 54 % 0.0 in
23:35 21.3 °F 15.8 °F 1016.8 in Calm   3.2 mph 71 % 0.0 in
23:37 24.3 °F 14.4 °F 1017.8 in WSW 5.6 mph 5.6 mph 54 % 0.0 in
23:42 24.2 °F 14.3 °F 1017.8 in WNW 5.6 mph 5.6 mph 54 % 0.0 in
23:45 21.2 °F 15.7 °F 1016.8 in Calm     71 % 0.0 in
23:47 24.2 °F 14.3 °F 1017.8 in SW 3.7 mph 3.7 mph 54 % 0.0 in
23:52 24.1 °F 14.2 °F 1017.8 in West 3.7 mph 3.7 mph 54 % 0.0 in
23:55 21.2 °F 15.7 °F 1016.8 in WSW 1.6 mph 1.6 mph 71 % 0.0 in
23:57 24.0 °F 14.1 °F 1017.8 in West 3.7 mph 3.7 mph 54 % 0.0 in
Meteo Sesrovires
Elogis d' Weather Underground - 2.5 mb

Guio original per  Jim McMurry - jmcmurry@mwt.net Adaptat per a la plantilla per  Wim van der Kuil - Leuven-Template.eu

Trobareu la nostra informacio del temps tambe a:

Weather Underground

AWEKAS